Aeroporto :
LOGIN :

Iscrizione | Disclaimer

   EN    FR    IT 

 










Sommario :    VFR   VFR Marginale   IFR   IFR Intensivo   IFR Molto Intensivo
Visibilità : 
Base nubi : 
>= 8 km
>= 3000ft
5 / 8 km
1000 / 3000 ft
1500m / 5 km
500 / 1000 ft
800 / 1500m
200 / 500 ft
< 800m
< 200 ft
Simboli :   Temporali  Nebbia  Neve Forte  Precipitazioni Forti  Vento > 20 kt
SIGMETs :   Varie  Temporali  Ghiacco  Turbolenza  Onda orograficha  Ceneri Vulcaniche






- Altitudine del aeroporto : 1822 ft


ETSL - Lechfeld AB

ULTIMO METAR :
  • 222020Z 21003KT 9999 BKN130 17/13 Q1010 BLACKBLU

METARs OBSOLETI :
  • 222015Z 20004KT 9999 BKN130 16/13 Q1010 BLACKBLU FCST CNL
  • 221920Z 20004KT 9999 BKN130 BKN270 17/14 Q1010 BLACKBLU BLU
  • 221820Z 19005KT 9999 SCT150 BKN270 18/14 Q1010 BLACKBLU+BLU+ TEMPO GRN

TAF TAF ETSL
Valido dal 22 a 20 ore il 23 a 05 ore UTC


221900Z 2220/2305 18003KT 9999 NSW SCT120
PROB30 2304/2305 20010G25KT 4000 TSRA BKN020CB BY ETHL



MetMap, La meteo Aeronautica in un colpo d'occhio ! - Copyright ORBIFLY Dicembre 2007 - Disclaimer

ORBIFLY MET'MAP TEAM :

Programmazione e sviluppo : Alexandra Zaïnal
Concezione : Baudouin d'Aumeries
Aiuto per la programmazione : Marc-Olivier Méhu
Supporto tecnico e logistico : Manuel Goepfert
Aiuto per la traduzione : Arnaldo La Scala

Contatto : metmap@orbifly.com




FONTI E CREDITI :

   NOAA